createdAt,value
2023-03-03T00:04:49.969Z,65153.28
2023-03-03T00:09:54.434Z,65112.13
2023-03-03T00:14:59.006Z,65118.19
2023-03-03T00:20:28.806Z,65178.56
2023-03-03T00:25:35.917Z,65211.75
2023-03-03T00:30:40.438Z,65153.28
2023-03-03T00:35:46.468Z,65073.03
2023-03-03T00:40:51.324Z,65142.53
2023-03-03T00:45:56.704Z,65206.44
2023-03-03T00:51:12.165Z,65149.00
2023-03-03T00:56:17.345Z,65013.97
2023-03-03T01:01:22.087Z,64983.72
2023-03-03T01:06:31.810Z,65068.13
2023-03-03T01:11:37.160Z,65118.63
2023-03-03T01:16:42.382Z,65133.06
2023-03-03T01:21:48.332Z,65158.38
2023-03-03T01:26:52.879Z,65183.78
2023-03-03T01:31:57.789Z,65170.69
2023-03-03T01:37:04.070Z,65220.25
2023-03-03T01:42:09.404Z,65229.72
2023-03-03T01:47:16.858Z,65183.88
2023-03-03T01:52:28.344Z,65164.44
2023-03-03T01:57:36.771Z,65151.66
2023-03-03T02:02:42.929Z,65149.00
2023-03-03T02:07:49.089Z,65098.00
2023-03-03T02:12:55.575Z,65115.09
2023-03-03T02:18:02.399Z,65145.72
2023-03-03T02:23:11.542Z,65203.25
2023-03-03T02:28:17.845Z,65133.59
2023-03-03T02:33:22.847Z,65161.13
2023-03-03T02:38:30.846Z,65195.69
2023-03-03T02:43:43.087Z,65242.59
2023-03-03T02:48:48.186Z,65269.09
2023-03-03T02:53:52.705Z,65247.16
2023-03-03T02:58:59.010Z,65267.59
2023-03-03T03:04:09.207Z,65303.25
2023-03-03T03:09:17.647Z,65304.09
2023-03-03T03:14:24.940Z,65277.72
2023-03-03T03:19:31.097Z,65308.66
2023-03-03T03:24:39.017Z,65250.66
2023-03-03T03:29:50.508Z,65332.84
2023-03-03T03:34:55.921Z,65143.69
2023-03-03T03:40:00.545Z,65163.91
2023-03-03T03:45:07.854Z,65281.97
2023-03-03T03:50:13.744Z,65337.31
2023-03-03T03:55:19.296Z,65306.88
2023-03-03T04:00:26.138Z,65358.09
2023-03-03T04:05:35.388Z,65342.63
2023-03-03T04:10:41.043Z,65327.75
2023-03-03T04:15:47.104Z,65326.34
2023-03-03T04:20:52.854Z,65256.44
2023-03-03T04:25:57.424Z,65377.13
2023-03-03T04:31:04.576Z,65373.94
2023-03-03T04:36:10.346Z,65358.94
2023-03-03T04:41:15.456Z,65274.09
2023-03-03T04:46:22.173Z,65294.53
2023-03-03T04:51:28.263Z,65320.59
2023-03-03T04:56:33.358Z,65287.81
2023-03-03T05:01:39.905Z,65293.66
2023-03-03T05:06:44.684Z,65345.28
2023-03-03T05:11:49.094Z,65314.75
2023-03-03T05:16:55.473Z,65240.47
2023-03-03T05:22:00.433Z,65287.91
2023-03-03T05:27:05.117Z,65319.41
2023-03-03T05:32:11.187Z,65374.47
2023-03-03T05:37:15.576Z,65372.34
2023-03-03T05:42:20.349Z,65435.94
2023-03-03T05:47:26.576Z,65414.88
2023-03-03T05:52:31.124Z,65405.91
2023-03-03T05:57:36.010Z,65405.91
2023-03-03T06:02:41.950Z,65352.66
2023-03-03T06:07:46.637Z,65376.06
2023-03-03T06:12:51.264Z,65381.28
2023-03-03T06:17:57.387Z,65361.28
2023-03-03T06:23:01.542Z,65445.75
2023-03-03T06:28:06.258Z,65476.88
2023-03-03T06:33:12.499Z,65418.59
2023-03-03T06:38:17.026Z,65352.22
2023-03-03T06:43:21.487Z,65394.81
2023-03-03T06:48:27.634Z,65413.38
2023-03-03T06:53:35.044Z,65430.84
2023-03-03T06:58:39.581Z,65410.81
2023-03-03T07:03:45.615Z,65418.78
2023-03-03T07:08:50.091Z,65424.66
2023-03-03T07:13:56.231Z,65458.22
2023-03-03T07:19:04.144Z,65500.31
2023-03-03T07:24:29.793Z,65526.44
2023-03-03T07:29:35.827Z,65463.88
2023-03-03T07:34:41.897Z,65486.28
2023-03-03T07:39:48.897Z,65505.22
2023-03-03T07:44:55.036Z,65375.00
2023-03-03T07:50:03.030Z,65325.06
2023-03-03T07:55:28.152Z,65347.97
2023-03-03T08:01:09.324Z,65368.19
2023-03-03T08:06:37.217Z,65395.44
2023-03-03T08:11:48.387Z,65338.16
2023-03-03T08:16:52.863Z,65345.28
2023-03-03T08:22:04.613Z,65387.88
2023-03-03T08:27:09.342Z,65400.78
2023-03-03T08:32:13.954Z,65344.75
2023-03-03T08:37:20.209Z,65425.81
2023-03-03T08:42:30.230Z,65439.91
2023-03-03T08:47:38.430Z,65416.22
2023-03-03T08:52:51.065Z,65456.63
2023-03-03T08:58:08.952Z,65456.50
2023-03-03T09:03:13.516Z,65429.53
2023-03-03T09:08:19.989Z,65499.25
2023-03-03T09:13:24.468Z,65566.00
2023-03-03T09:18:34.277Z,65438.50
2023-03-03T09:23:43.154Z,65505.75
2023-03-03T09:28:47.837Z,65473.13
2023-03-03T09:33:55.236Z,65549.38
2023-03-03T09:39:32.624Z,65443.28
2023-03-03T09:45:15.547Z,65344.22
2023-03-03T09:50:30.001Z,65403.78
2023-03-03T09:55:46.821Z,65431.25
2023-03-03T10:01:00.417Z,65470.03
2023-03-03T10:06:20.424Z,65511.63
2023-03-03T10:11:34.273Z,65473.66
2023-03-03T10:16:59.718Z,65457.16
2023-03-03T10:22:19.345Z,65446.41
2023-03-03T10:27:41.581Z,65411.88
2023-03-03T10:32:56.597Z,65387.03
2023-03-03T10:38:15.834Z,65440.00
2023-03-03T10:43:36.893Z,65526.97
2023-03-03T10:49:10.634Z,65436.38
2023-03-03T10:54:31.159Z,65415.50
2023-03-03T10:59:56.403Z,65384.69
2023-03-03T11:05:20.786Z,65477.06
2023-03-03T11:10:38.663Z,65582.97
2023-03-03T11:16:02.533Z,65498.28
2023-03-03T11:21:17.513Z,65483.28
2023-03-03T11:26:41.900Z,65540.22
2023-03-03T11:32:14.323Z,65455.22
2023-03-03T11:37:36.194Z,65423.50
2023-03-03T11:43:04.374Z,65427.84
2023-03-03T11:48:24.886Z,65480.06
2023-03-03T11:53:42.182Z,65482.09
2023-03-03T11:58:53.181Z,65432.09
2023-03-03T12:04:02.617Z,65432.53
2023-03-03T12:09:26.871Z,65395.88
2023-03-03T12:14:57.883Z,65426.25
2023-03-03T12:20:11.098Z,65479.44
2023-03-03T12:25:33.834Z,65402.81
2023-03-03T12:30:50.853Z,65451.63
2023-03-03T12:36:08.726Z,65475.19
2023-03-03T12:41:21.473Z,65498.72
2023-03-03T12:46:34.978Z,65447.22
2023-03-03T12:51:54.704Z,65479.97
2023-03-03T12:57:06.108Z,65498.19
2023-03-03T13:02:30.804Z,65573.25
2023-03-03T13:07:46.316Z,65499.38
2023-03-03T13:12:57.325Z,65459.47
2023-03-03T13:18:18.591Z,65459.91
2023-03-03T13:23:39.355Z,65502.47
2023-03-03T13:28:57.089Z,65452.44
2023-03-03T13:34:03.506Z,65614.56
2023-03-03T13:39:20.086Z,65605.03
2023-03-03T13:44:31.952Z,65523.66
2023-03-03T13:49:55.633Z,65571.66
2023-03-03T13:55:23.170Z,65495.00
2023-03-03T14:00:50.800Z,65476.78
2023-03-03T14:06:02.606Z,65376.16
2023-03-03T14:11:16.746Z,65389.50
2023-03-03T14:16:37.185Z,65393.75
2023-03-03T14:21:50.936Z,65425.72
2023-03-03T14:26:58.649Z,65402.81
2023-03-03T14:32:04.565Z,65434.56
2023-03-03T14:37:23.439Z,65411.34
2023-03-03T14:42:45.166Z,65400.16
2023-03-03T14:47:50.181Z,65434.25
2023-03-03T14:53:17.052Z,65388.31
2023-03-03T14:58:33.127Z,65394.38
2023-03-03T15:03:39.432Z,65394.81
2023-03-03T15:08:44.556Z,65357.56
2023-03-03T15:13:50.822Z,65331.47
2023-03-03T15:19:28.341Z,65343.06
2023-03-03T15:24:41.597Z,65365.44
2023-03-03T15:30:02.161Z,65374.56
2023-03-03T15:35:22.497Z,65296.88
2023-03-03T15:40:29.924Z,65260.16
2023-03-03T15:45:41.812Z,65250.03
2023-03-03T15:50:57.032Z,65266.41
2023-03-03T15:56:13.307Z,65237.72
2023-03-03T16:01:26.684Z,65230.88
2023-03-03T16:06:40.082Z,65286.22
2023-03-03T16:11:51.330Z,65253.03
2023-03-03T16:17:07.375Z,65210.91
2023-03-03T16:22:28.902Z,65201.63
2023-03-03T16:27:38.503Z,65210.03
2023-03-03T16:32:52.139Z,65205.25
2023-03-03T16:38:01.338Z,65190.91
2023-03-03T16:43:19.127Z,65175.69
2023-03-03T16:48:36.057Z,65204.31
2023-03-03T16:53:52.830Z,65223.34
2023-03-03T16:59:15.831Z,65193.66
2023-03-03T17:04:42.128Z,65166.03
2023-03-03T17:10:04.663Z,65184.50
2023-03-03T17:15:25.407Z,65182.38
2023-03-03T17:20:40.374Z,65184.94
2023-03-03T17:25:51.586Z,65202.16
2023-03-03T17:31:03.330Z,65186.75
2023-03-03T17:36:26.094Z,65174.41
2023-03-03T17:41:37.345Z,65201.53
2023-03-03T17:46:47.601Z,65176.03
2023-03-03T17:52:23.066Z,65170.38
2023-03-03T17:57:42.281Z,65173.88
2023-03-03T18:03:41.895Z,65192.59
2023-03-03T18:09:15.911Z,65164.97
2023-03-03T18:14:34.816Z,65176.22
2023-03-03T18:20:13.380Z,65145.41
2023-03-03T18:25:33.193Z,65174.00
2023-03-03T18:31:00.440Z,65113.41
2023-03-03T18:36:16.743Z,65144.75
2023-03-03T18:41:27.861Z,65104.91
2023-03-03T18:46:54.243Z,65161.66
2023-03-03T18:52:19.496Z,65169.09
2023-03-03T18:57:25.976Z,65154.88
2023-03-03T19:02:46.448Z,65182.28
2023-03-03T19:08:00.411Z,65170.69
2023-03-03T19:13:32.081Z,65180.50
2023-03-03T19:18:49.123Z,65185.69
2023-03-03T19:23:59.917Z,65190.59
2023-03-03T19:29:19.715Z,65240.25
2023-03-03T19:34:39.601Z,65209.63
2023-03-03T19:39:54.940Z,65222.81
2023-03-03T19:45:16.361Z,65203.03
2023-03-03T19:50:34.613Z,65220.69
2023-03-03T19:55:50.702Z,65199.41
2023-03-03T20:01:08.367Z,65192.59
2023-03-03T20:06:25.852Z,65262.81
2023-03-03T20:11:49.776Z,65208.56
2023-03-03T20:17:00.418Z,65235.56
2023-03-03T20:22:11.984Z,65207.81
2023-03-03T20:27:19.858Z,65235.03
2023-03-03T20:32:34.830Z,65213.22
2023-03-03T20:37:50.612Z,65185.69
2023-03-03T20:43:05.005Z,65191.53
2023-03-03T20:48:26.997Z,65235.25
2023-03-03T20:53:42.027Z,65197.91
2023-03-03T20:59:02.183Z,65243.44
2023-03-03T21:04:22.772Z,65222.16
2023-03-03T21:09:30.210Z,65198.78
2023-03-03T21:14:37.054Z,65202.16
2023-03-03T21:19:42.932Z,65196.00
2023-03-03T21:24:51.051Z,65195.56
2023-03-03T21:30:08.020Z,65231.31
2023-03-03T21:35:16.301Z,65200.03
2023-03-03T21:40:24.565Z,65176.84
2023-03-03T21:45:30.255Z,65155.28
2023-03-03T21:50:36.235Z,65148.47
2023-03-03T21:55:40.495Z,65164.53
2023-03-03T22:00:44.964Z,65156.22
2023-03-03T22:05:50.912Z,65157.50
2023-03-03T22:10:56.343Z,65147.22
2023-03-03T22:16:01.011Z,65152.22
2023-03-03T22:21:09.436Z,65159.53
2023-03-03T22:26:13.946Z,65130.31
2023-03-03T22:31:20.120Z,65136.78
2023-03-03T22:36:26.080Z,65147.31
2023-03-03T22:41:30.751Z,65149.88
2023-03-03T22:46:35.333Z,65156.88
2023-03-03T22:51:41.236Z,65113.94
2023-03-03T22:56:45.670Z,65101.59
2023-03-03T23:01:50.145Z,65115.31
2023-03-03T23:06:57.339Z,65105.88
2023-03-03T23:12:02.071Z,65105.44
2023-03-03T23:17:06.447Z,65096.31
2023-03-03T23:22:12.250Z,65100.34
2023-03-03T23:27:16.261Z,65087.78
2023-03-03T23:32:21.744Z,65092.69
2023-03-03T23:37:28.076Z,65095.25
2023-03-03T23:42:32.230Z,65143.06
2023-03-03T23:47:36.698Z,65112.66
2023-03-03T23:52:42.683Z,65100.97
2023-03-03T23:57:47.116Z,65129.56
